Time;durP1;ratioP1;P1;durP2;ratioP2;P2;SDS_P1;SDS_P2;PMS_P1;PMS_P2;Temp;Humidity;BMP_temperature;BMP_pressure;BME280_temperature;BME280_humidity;BME280_pressure;Samples;Min_cycle;Max_cycle;Signal;HPM_P1;HPM_P2
2022/03/27 00:02:15;;;;;;;0.60;0.50;;;12.30;48.40;;;;;;4947978;28;20042;-81
2022/03/27 00:04:41;;;;;;;1.55;0.40;;;12.30;48.30;;;;;;4960411;28;20034;-80
2022/03/27 00:07:07;;;;;;;0.60;0.43;;;12.30;48.10;;;;;;4945032;28;20055;-81
2022/03/27 00:09:34;;;;;;;0.52;0.40;;;12.30;48.50;;;;;;4959481;28;20151;-81
2022/03/27 00:12:00;;;;;;;0.40;0.32;;;12.20;47.70;;;;;;4963602;28;20046;-80
2022/03/27 00:14:26;;;;;;;0.75;0.38;;;12.20;47.80;;;;;;4965089;28;20122;-81
2022/03/27 00:16:52;;;;;;;1.35;0.40;;;12.20;47.80;;;;;;4965512;28;20125;-81
2022/03/27 00:19:18;;;;;;;0.70;0.50;;;12.20;47.80;;;;;;4964384;28;20312;-82
2022/03/27 00:21:44;;;;;;;1.27;0.30;;;12.20;47.60;;;;;;4966224;28;20059;-79
2022/03/27 00:24:10;;;;;;;0.47;0.40;;;12.10;47.90;;;;;;4969233;28;20034;-80
2022/03/27 00:26:36;;;;;;;1.23;0.40;;;12.10;48.10;;;;;;4967028;28;20038;-79
2022/03/27 00:29:02;;;;;;;1.20;0.50;;;12.10;48.60;;;;;;4967096;28;20042;-80
2022/03/27 00:31:35;;;;;;;0.60;0.32;;;12.10;48.50;;;;;;4967633;28;20077;-80
2022/03/27 00:34:02;;;;;;;1.77;0.70;;;12.10;49.30;;;;;;4965693;28;20046;-81
2022/03/27 00:36:29;;;;;;;2.83;0.60;;;12.10;50.30;;;;;;4966821;28;20066;-79
2022/03/27 00:38:55;;;;;;;0.40;0.40;;;12.10;49.80;;;;;;4964524;28;20465;-80
2022/03/27 00:41:23;;;;;;;0.40;0.40;;;12.10;49.50;;;;;;4966828;28;20043;-81
2022/03/27 00:43:49;;;;;;;0.80;0.45;;;12.10;49.30;;;;;;4965957;28;20039;-82
2022/03/27 00:46:15;;;;;;;1.27;0.55;;;12.10;49.30;;;;;;4954623;28;20049;-80
2022/03/27 00:48:41;;;;;;;0.50;0.30;;;12.10;49.80;;;;;;4967359;28;20035;-81
2022/03/27 00:51:07;;;;;;;0.63;0.40;;;12.10;49.40;;;;;;4979684;28;20035;-82
2022/03/27 00:53:33;;;;;;;0.43;0.32;;;12.10;49.10;;;;;;4937081;28;20580;-81
2022/03/27 00:56:00;;;;;;;0.68;0.30;;;12.10;49.50;;;;;;4967713;28;20035;-80
2022/03/27 00:58:26;;;;;;;0.47;0.40;;;12.10;49.30;;;;;;4968347;28;20529;-82
2022/03/27 01:01:11;;;;;;;0.57;0.40;;;12.10;49.40;;;;;;4964085;28;20510;-82
2022/03/27 01:03:37;;;;;;;0.95;0.20;;;12.00;49.30;;;;;;4964946;28;20506;-81
2022/03/27 01:06:03;;;;;;;1.58;0.47;;;12.10;49.20;;;;;;4963784;28;20035;-81
2022/03/27 01:11:18;;;;;;;0.40;0.30;;;12.10;49.20;;;;;;4950259;28;20121;-81
2022/03/27 01:13:55;;;;;;;2.22;0.25;;;12.00;49.80;;;;;;4965856;28;20031;-82
2022/03/27 01:17:08;;;;;;;1.35;0.40;;;12.00;49.50;;;;;;4963955;28;20041;-79
2022/03/27 01:19:38;;;;;;;0.75;0.30;;;12.00;49.40;;;;;;4946308;28;20046;-79
2022/03/27 01:22:04;;;;;;;1.95;0.40;;;12.00;49.40;;;;;;4948356;28;20030;-79
2022/03/27 01:24:30;;;;;;;0.98;0.38;;;12.00;49.60;;;;;;4961602;28;20094;-80
2022/03/27 01:26:56;;;;;;;1.80;0.25;;;12.00;49.90;;;;;;4961887;28;21361;-81
2022/03/27 01:29:22;;;;;;;1.15;0.43;;;12.00;50.10;;;;;;4965103;28;20129;-80
2022/03/27 01:31:51;;;;;;;0.30;0.30;;;12.00;49.80;;;;;;4961743;28;20035;-79
2022/03/27 01:34:18;;;;;;;1.67;0.60;;;12.00;49.70;;;;;;4963957;28;20037;-79
2022/03/27 01:36:44;;;;;;;0.75;0.30;;;12.00;49.70;;;;;;4963716;28;20069;-80
2022/03/27 01:39:12;;;;;;;0.50;0.20;;;12.00;49.60;;;;;;4962766;28;20130;-80
2022/03/27 01:41:39;;;;;;;0.98;0.40;;;12.00;49.30;;;;;;4962977;28;20105;-80
2022/03/27 01:44:08;;;;;;;0.60;0.35;;;11.90;49.10;;;;;;4964361;28;20051;-79
2022/03/27 01:46:37;;;;;;;0.85;0.40;;;11.90;49.50;;;;;;4964523;28;20027;-78
2022/03/27 01:49:11;;;;;;;0.50;0.30;;;11.90;49.70;;;;;;4960059;28;20037;-79
2022/03/27 01:51:38;;;;;;;1.10;0.30;;;11.90;49.40;;;;;;4960479;28;20130;-81
2022/03/27 01:54:05;;;;;;;1.33;0.30;;;11.90;49.40;;;;;;4965855;28;20533;-79
2022/03/27 01:56:32;;;;;;;0.70;0.30;;;11.90;49.50;;;;;;4966348;28;20035;-81
2022/03/27 01:58:58;;;;;;;0.75;0.40;;;11.90;49.50;;;;;;4962725;28;20065;-80
2022/03/27 02:01:24;;;;;;;0.70;0.40;;;11.90;49.40;;;;;;4963498;28;20050;-80
2022/03/27 02:03:51;;;;;;;0.88;0.20;;;11.90;49.30;;;;;;4981264;28;20038;-78
2022/03/27 02:06:18;;;;;;;1.25;0.28;;;11.90;49.90;;;;;;4967322;28;20039;-78
2022/03/27 02:08:44;;;;;;;0.43;0.22;;;11.90;50.50;;;;;;4964419;28;20584;-78
2022/03/27 02:11:10;;;;;;;0.68;0.40;;;11.90;50.70;;;;;;4965009;28;20110;-79
2022/03/27 02:13:37;;;;;;;0.35;0.13;;;11.90;50.20;;;;;;4964555;28;20760;-79
2022/03/27 02:16:03;;;;;;;0.20;0.20;;;11.90;50.40;;;;;;4966985;28;20039;-78
2022/03/27 02:18:31;;;;;;;0.30;0.20;;;11.80;50.20;;;;;;4963213;28;20132;-78
2022/03/27 02:20:57;;;;;;;0.30;0.20;;;11.90;51.10;;;;;;4962353;28;20043;-78
2022/03/27 02:23:24;;;;;;;0.73;0.38;;;11.90;51.80;;;;;;4963108;28;20046;-78
2022/03/27 02:25:50;;;;;;;0.45;0.30;;;11.80;51.50;;;;;;4965743;28;20474;-78
2022/03/27 02:28:17;;;;;;;1.55;0.20;;;11.90;51.50;;;;;;4963155;28;20034;-78
2022/03/27 02:30:43;;;;;;;0.88;0.30;;;11.90;51.50;;;;;;4961139;28;20405;-78
2022/03/27 02:33:09;;;;;;;1.95;0.40;;;11.90;51.10;;;;;;4962979;28;20090;-78
2022/03/27 02:35:35;;;;;;;0.55;0.20;;;11.90;50.60;;;;;;4963675;28;20532;-78
2022/03/27 02:38:06;;;;;;;1.45;0.30;;;11.90;51.30;;;;;;4961970;28;20039;-78
2022/03/27 02:40:37;;;;;;;0.90;0.25;;;11.90;51.80;;;;;;4945749;28;20125;-78
2022/03/27 02:43:04;;;;;;;1.58;0.40;;;11.90;51.10;;;;;;4960854;28;20531;-78
2022/03/27 02:45:30;;;;;;;0.30;0.30;;;11.90;51.00;;;;;;4961272;28;20041;-78
2022/03/27 02:47:57;;;;;;;0.85;0.10;;;11.90;51.50;;;;;;4960765;28;20402;-78
2022/03/27 02:50:24;;;;;;;0.57;0.40;;;11.90;51.80;;;;;;4961774;28;20046;-79
2022/03/27 02:52:50;;;;;;;0.95;0.20;;;11.90;52.00;;;;;;4961744;28;20042;-77
2022/03/27 02:55:16;;;;;;;0.40;0.30;;;11.90;52.10;;;;;;4949554;28;20361;-79
2022/03/27 02:57:42;;;;;;;0.80;0.20;;;11.90;52.20;;;;;;4962240;28;20035;-80
2022/03/27 03:00:10;;;;;;;0.55;0.30;;;11.90;52.00;;;;;;4961213;28;20050;-81
2022/03/27 03:02:36;;;;;;;0.32;0.20;;;11.90;52.00;;;;;;4975955;28;20535;-80
2022/03/27 03:05:05;;;;;;;1.17;0.20;;;11.90;52.20;;;;;;4966196;28;20122;-79
2022/03/27 03:07:33;;;;;;;0.32;0.17;;;11.90;52.60;;;;;;4963241;28;20035;-80
2022/03/27 03:10:01;;;;;;;2.28;0.20;;;11.90;53.00;;;;;;4963512;28;20050;-79
2022/03/27 03:12:27;;;;;;;0.70;0.20;;;11.90;53.00;;;;;;4961171;28;20028;-80
2022/03/27 03:14:55;;;;;;;0.25;0.10;;;11.90;53.10;;;;;;4959863;28;20043;-78
2022/03/27 03:17:25;;;;;;;0.55;0.20;;;11.90;52.90;;;;;;4979465;28;20039;-78
2022/03/27 03:19:52;;;;;;;0.95;0.57;;;11.90;53.00;;;;;;4960170;28;20505;-79
2022/03/27 03:22:18;;;;;;;0.57;0.20;;;12.00;53.20;;;;;;4960116;28;20387;-80
2022/03/27 03:24:45;;;;;;;0.50;0.20;;;11.90;53.60;;;;;;4946231;28;20510;-80
2022/03/27 03:27:11;;;;;;;2.40;0.38;;;11.90;53.70;;;;;;4960916;28;20038;-78
2022/03/27 03:29:36;;;;;;;0.45;0.20;;;12.00;54.00;;;;;;4960484;28;20050;-80
2022/03/27 03:32:03;;;;;;;1.13;0.38;;;12.00;54.40;;;;;;4964662;28;20042;-82
2022/03/27 03:34:29;;;;;;;0.50;0.30;;;12.00;54.50;;;;;;4961156;28;20050;-81
2022/03/27 03:36:56;;;;;;;0.43;0.30;;;12.00;54.60;;;;;;4962070;28;20042;-82
2022/03/27 03:39:22;;;;;;;0.80;0.20;;;12.00;54.30;;;;;;4961251;28;20034;-82
2022/03/27 03:41:48;;;;;;;0.95;0.30;;;12.00;54.20;;;;;;4961720;28;20035;-82
2022/03/27 03:44:14;;;;;;;0.45;0.13;;;12.10;54.20;;;;;;4962120;28;20514;-82
2022/03/27 03:46:40;;;;;;;3.78;0.40;;;12.10;53.80;;;;;;4961516;28;20050;-81
2022/03/27 03:49:06;;;;;;;2.45;0.20;;;12.10;52.90;;;;;;4961156;28;20514;-81
2022/03/27 03:51:37;;;;;;;2.95;0.30;;;12.10;52.00;;;;;;4965395;28;20131;-80
2022/03/27 03:54:06;;;;;;;0.45;0.43;;;12.00;52.00;;;;;;4965989;28;20139;-80
2022/03/27 03:56:33;;;;;;;0.47;0.30;;;12.10;52.30;;;;;;4966933;28;20035;-81
2022/03/27 03:58:59;;;;;;;1.13;0.30;;;12.10;52.70;;;;;;4967601;28;20548;-80
2022/03/27 04:01:25;;;;;;;0.47;0.35;;;12.10;53.10;;;;;;4980418;28;20406;-80
2022/03/27 04:03:51;;;;;;;3.15;0.40;;;12.10;53.60;;;;;;4963896;28;20035;-79
2022/03/27 04:06:17;;;;;;;0.40;0.20;;;12.10;54.20;;;;;;4965575;28;20093;-80
2022/03/27 04:08:43;;;;;;;0.40;0.30;;;12.10;54.60;;;;;;4965197;28;20070;-79
2022/03/27 04:11:14;;;;;;;2.88;0.25;;;12.10;55.00;;;;;;4964651;28;20041;-80
2022/03/27 04:13:40;;;;;;;1.63;0.30;;;12.20;55.20;;;;;;4981770;28;20035;-80
2022/03/27 04:16:07;;;;;;;1.30;0.25;;;12.20;55.40;;;;;;4964713;28;20469;-83
2022/03/27 04:18:32;;;;;;;0.70;0.20;;;12.20;55.40;;;;;;4966732;28;20041;-85
2022/03/27 04:20:58;;;;;;;1.02;0.40;;;12.20;55.30;;;;;;4963371;28;20047;-85
2022/03/27 04:23:24;;;;;;;0.35;0.20;;;12.20;55.30;;;;;;4963679;28;20038;-84
2022/03/27 04:25:50;;;;;;;2.08;0.22;;;12.20;55.40;;;;;;4963419;28;20047;-84
2022/03/27 04:28:16;;;;;;;2.95;0.30;;;12.30;55.70;;;;;;4952261;28;20085;-86
2022/03/27 04:30:42;;;;;;;0.82;0.10;;;12.30;55.80;;;;;;4963710;28;20038;-85
2022/03/27 04:33:08;;;;;;;1.30;0.20;;;12.30;55.90;;;;;;4966962;28;20055;-86
2022/03/27 04:35:34;;;;;;;0.43;0.15;;;12.30;55.90;;;;;;4964192;28;20039;-86
2022/03/27 04:38:01;;;;;;;1.98;0.45;;;12.30;56.00;;;;;;4965526;28;20125;-85
2022/03/27 04:40:27;;;;;;;1.73;0.20;;;12.30;55.50;;;;;;4965080;28;20042;-85
2022/03/27 04:42:53;;;;;;;1.60;0.10;;;12.40;55.10;;;;;;4965957;28;20046;-83
2022/03/27 04:45:19;;;;;;;0.90;0.20;;;12.30;54.60;;;;;;4965505;28;20526;-84
2022/03/27 04:47:45;;;;;;;0.73;0.30;;;12.40;54.80;;;;;;4963237;28;20043;-85
2022/03/27 04:50:11;;;;;;;1.75;0.22;;;12.40;54.70;;;;;;4963739;28;20038;-87
2022/03/27 04:52:38;;;;;;;1.75;0.20;;;12.40;53.90;;;;;;4964082;28;20039;-83
2022/03/27 04:55:05;;;;;;;1.08;0.25;;;12.40;52.70;;;;;;4964031;28;20045;-85
2022/03/27 04:57:37;;;;;;;1.85;0.20;;;12.40;52.00;;;;;;4967186;28;20624;-90
2022/03/27 05:00:10;;;;;;;0.22;0.20;;;12.30;51.50;;;;;;4969094;28;20038;-90
2022/03/27 05:02:40;;;;;;;0.80;0.30;;;12.30;50.80;;;;;;4953987;28;20047;-87
2022/03/27 05:05:08;;;;;;;0.17;0.17;;;12.30;51.30;;;;;;4943188;28;20316;-87
2022/03/27 05:07:39;;;;;;;0.60;0.20;;;12.30;52.10;;;;;;4931878;28;20060;-93
2022/03/27 05:10:05;;;;;;;1.55;0.40;;;12.30;52.40;;;;;;4932514;28;20105;-87
2022/03/27 05:12:31;;;;;;;0.40;0.30;;;12.30;51.60;;;;;;4964018;28;20078;-87
2022/03/27 05:14:58;;;;;;;1.67;0.30;;;12.30;50.90;;;;;;4963590;28;20139;-83
2022/03/27 05:17:24;;;;;;;1.10;0.22;;;12.30;51.50;;;;;;4934784;28;20033;-87
2022/03/27 05:19:50;;;;;;;2.17;0.45;;;12.30;52.30;;;;;;4945322;28;20506;-82
2022/03/27 05:22:16;;;;;;;1.25;0.20;;;12.30;52.90;;;;;;4951519;28;20038;-83
2022/03/27 05:24:42;;;;;;;0.70;0.30;;;12.30;53.10;;;;;;4966617;28;20473;-84
2022/03/27 05:27:08;;;;;;;0.95;0.30;;;12.30;53.40;;;;;;4964181;28;20478;-84
2022/03/27 05:29:34;;;;;;;2.15;0.30;;;12.30;53.90;;;;;;4962994;28;20046;-84
2022/03/27 05:32:00;;;;;;;0.47;0.25;;;12.30;53.60;;;;;;4965070;28;20035;-84
2022/03/27 05:34:26;;;;;;;0.70;0.30;;;12.30;52.50;;;;;;4955630;28;20038;-83
2022/03/27 05:36:52;;;;;;;0.60;0.40;;;12.30;52.70;;;;;;4946030;28;20107;-83
2022/03/27 05:39:19;;;;;;;2.58;0.30;;;12.30;52.50;;;;;;4941850;28;20549;-84
2022/03/27 05:41:45;;;;;;;1.33;0.20;;;12.30;52.50;;;;;;4949952;28;20031;-82
2022/03/27 05:44:11;;;;;;;2.10;0.30;;;12.30;52.80;;;;;;4935763;28;20045;-81
2022/03/27 05:46:37;;;;;;;0.60;0.20;;;12.40;52.90;;;;;;4935239;28;20035;-82
2022/03/27 05:49:03;;;;;;;0.38;0.22;;;12.30;52.80;;;;;;4963196;28;20035;-81
2022/03/27 05:51:29;;;;;;;0.47;0.20;;;12.40;53.00;;;;;;4963823;28;20035;-84
2022/03/27 05:53:55;;;;;;;3.15;0.30;;;12.40;53.30;;;;;;4964704;28;20070;-81
2022/03/27 05:56:21;;;;;;;1.38;0.45;;;12.30;54.20;;;;;;4945871;28;20062;-80
2022/03/27 05:58:47;;;;;;;3.40;0.30;;;12.40;55.20;;;;;;4948306;28;20054;-86
2022/03/27 06:01:14;;;;;;;3.13;0.30;;;12.40;55.20;;;;;;4970633;28;20042;-83
2022/03/27 06:03:41;;;;;;;6.45;0.40;;;12.40;55.60;;;;;;4986054;28;20126;-87
2022/03/27 06:06:07;;;;;;;2.83;0.47;;;12.50;56.50;;;;;;4965085;28;20042;-84
2022/03/27 06:08:33;;;;;;;3.47;0.43;;;12.50;55.70;;;;;;4983743;28;20046;-83
2022/03/27 06:10:59;;;;;;;2.30;0.20;;;12.50;54.40;;;;;;4982224;28;20043;-82
2022/03/27 06:13:26;;;;;;;1.80;0.30;;;12.50;53.40;;;;;;4970223;28;20030;-84
2022/03/27 06:15:52;;;;;;;0.98;0.43;;;12.50;51.70;;;;;;4983144;28;20041;-84
2022/03/27 06:18:18;;;;;;;1.73;0.35;;;12.50;50.70;;;;;;4983374;28;20030;-85
2022/03/27 06:20:44;;;;;;;0.63;0.43;;;12.50;50.00;;;;;;4982611;28;20062;-83
2022/03/27 06:23:10;;;;;;;0.85;0.20;;;12.50;49.80;;;;;;4968711;28;20042;-86
2022/03/27 06:25:38;;;;;;;3.45;0.35;;;12.50;49.50;;;;;;4965821;28;20026;-86
2022/03/27 06:28:04;;;;;;;2.35;0.30;;;12.50;50.50;;;;;;4981120;28;20038;-84
2022/03/27 06:30:32;;;;;;;1.50;0.30;;;12.60;51.50;;;;;;4983589;28;20733;-87
2022/03/27 06:33:02;;;;;;;4.47;0.70;;;12.60;52.40;;;;;;4947389;28;21338;-82
2022/03/27 06:35:29;;;;;;;2.42;0.35;;;12.60;53.30;;;;;;4983552;28;20034;-83
2022/03/27 06:37:56;;;;;;;3.70;0.40;;;12.70;54.20;;;;;;4981849;28;20504;-83
2022/03/27 06:40:22;;;;;;;2.97;0.38;;;12.70;54.20;;;;;;4964844;28;20041;-84
2022/03/27 06:42:48;;;;;;;0.60;0.30;;;12.60;53.30;;;;;;4982589;28;20085;-84
2022/03/27 06:45:17;;;;;;;1.50;0.40;;;12.60;52.20;;;;;;4982800;28;20034;-84
2022/03/27 06:47:44;;;;;;;2.55;0.55;;;12.60;52.00;;;;;;4964120;28;20510;-84
2022/03/27 06:50:12;;;;;;;1.02;0.30;;;12.60;52.00;;;;;;4952693;28;20042;-84
2022/03/27 06:52:38;;;;;;;1.55;0.30;;;12.60;51.30;;;;;;4982186;28;20084;-84
2022/03/27 06:55:08;;;;;;;4.47;0.47;;;12.70;51.40;;;;;;4964636;28;20149;-84
2022/03/27 06:57:35;;;;;;;3.15;0.40;;;12.60;51.80;;;;;;4984562;28;20050;-85
2022/03/27 07:03:02;;;;;;;1.25;0.40;;;12.70;51.40;;;;;;4966872;28;20058;-85
2022/03/27 07:05:31;;;;;;;1.98;0.45;;;12.70;51.50;;;;;;4947906;28;20037;-86
2022/03/27 07:07:58;;;;;;;1.23;0.55;;;12.70;51.70;;;;;;4962709;28;20037;-84
2022/03/27 07:10:24;;;;;;;1.85;0.45;;;12.80;52.50;;;;;;4960076;28;20027;-88
2022/03/27 07:12:50;;;;;;;3.45;0.60;;;12.80;53.00;;;;;;4966342;28;20372;-83
2022/03/27 07:15:16;;;;;;;0.85;0.30;;;12.80;53.30;;;;;;4960545;28;20380;-83
2022/03/27 07:17:47;;;;;;;3.67;0.50;;;12.80;53.20;;;;;;4946199;28;20478;-84
2022/03/27 07:20:24;;;;;;;4.95;0.40;;;12.80;53.20;;;;;;4948949;28;20042;-82
2022/03/27 07:22:51;;;;;;;1.48;0.30;;;12.80;53.70;;;;;;4964990;28;20026;-87
2022/03/27 07:25:17;;;;;;;1.17;0.50;;;12.80;54.00;;;;;;4963146;28;20034;-86
2022/03/27 07:27:43;;;;;;;1.45;0.30;;;12.90;54.40;;;;;;4965692;28;20039;-84
2022/03/27 07:30:09;;;;;;;1.63;0.43;;;12.90;54.40;;;;;;4963540;28;20498;-84
2022/03/27 07:32:38;;;;;;;1.85;0.40;;;12.90;54.20;;;;;;4943561;28;20498;-87
2022/03/27 07:35:05;;;;;;;4.50;0.50;;;12.90;53.70;;;;;;4960248;28;20389;-83
2022/03/27 07:37:34;;;;;;;1.90;0.50;;;12.90;52.10;;;;;;4950270;28;20093;-82
2022/03/27 07:40:03;;;;;;;1.52;0.50;;;12.90;51.00;;;;;;4982901;28;20054;-81
2022/03/27 07:42:30;;;;;;;1.95;0.40;;;12.90;47.10;;;;;;4969296;28;20399;-83
2022/03/27 07:44:56;;;;;;;1.80;0.45;;;12.70;46.30;;;;;;4966568;28;20612;-82
2022/03/27 07:47:22;;;;;;;1.88;0.40;;;12.60;46.80;;;;;;4969341;28;20039;-82
2022/03/27 07:49:48;;;;;;;1.90;0.63;;;12.50;45.40;;;;;;4959549;28;20363;-81
2022/03/27 07:52:14;;;;;;;2.15;0.80;;;12.30;45.60;;;;;;4962137;28;20045;-81
2022/03/27 07:54:41;;;;;;;3.63;0.63;;;12.20;46.50;;;;;;4961265;28;20035;-81
2022/03/27 07:57:08;;;;;;;2.53;0.60;;;12.10;47.20;;;;;;4960694;28;20063;-82
2022/03/27 07:59:34;;;;;;;2.50;0.90;;;12.10;46.50;;;;;;4946829;28;20729;-81
2022/03/27 08:02:01;;;;;;;3.72;0.93;;;12.00;45.30;;;;;;4973934;28;20046;-81
2022/03/27 08:04:27;;;;;;;2.38;0.90;;;11.90;45.50;;;;;;4984973;28;20038;-83
2022/03/27 08:06:53;;;;;;;4.38;0.77;;;11.80;45.30;;;;;;4964328;28;20637;-84
2022/03/27 08:09:19;;;;;;;1.20;0.90;;;11.70;45.40;;;;;;4982265;28;20046;-80
2022/03/27 08:11:45;;;;;;;4.45;1.20;;;11.60;45.90;;;;;;4967405;28;20037;-84
2022/03/27 08:14:12;;;;;;;1.52;0.60;;;11.50;45.50;;;;;;4983853;28;20429;-82
2022/03/27 08:16:38;;;;;;;2.70;0.80;;;11.40;44.40;;;;;;4981399;28;20042;-83
2022/03/27 08:19:05;;;;;;;4.13;0.95;;;11.30;44.30;;;;;;4964589;28;20391;-82
2022/03/27 08:21:31;;;;;;;2.95;0.60;;;11.30;45.30;;;;;;4982018;28;20035;-83
2022/03/27 08:23:57;;;;;;;5.35;0.73;;;11.20;45.00;;;;;;4983625;28;20397;-83
2022/03/27 08:29:07;;;;;;;3.92;0.60;;;11.10;43.60;;;;;;4965503;28;20039;-82
2022/03/27 08:31:34;;;;;;;2.83;0.70;;;11.00;43.20;;;;;;4962476;28;20093;-83
2022/03/27 08:34:00;;;;;;;3.05;0.60;;;10.90;44.30;;;;;;4946921;28;20038;-82
2022/03/27 08:36:27;;;;;;;2.53;0.70;;;10.80;45.20;;;;;;4971965;28;20045;-83
2022/03/27 08:38:54;;;;;;;4.03;0.80;;;10.80;45.10;;;;;;4970901;28;20043;-84
2022/03/27 08:41:24;;;;;;;0.82;0.60;;;10.80;44.90;;;;;;4971567;28;20509;-83
2022/03/27 08:43:58;;;;;;;2.40;0.98;;;10.80;44.50;;;;;;4970152;28;20114;-83
2022/03/27 08:46:29;;;;;;;1.60;0.70;;;10.70;44.50;;;;;;4984354;28;20362;-85
2022/03/27 08:49:25;;;;;;;1.63;0.70;;;10.70;44.90;;;;;;4966066;28;20035;-83
2022/03/27 08:52:19;;;;;;;2.25;0.70;;;10.60;44.60;;;;;;4951999;28;20035;-86
2022/03/27 08:55:03;;;;;;;1.70;0.70;;;10.60;44.50;;;;;;4984499;28;20804;-85
2022/03/27 08:57:58;;;;;;;3.88;0.88;;;10.50;45.00;;;;;;4983803;28;20070;-84
2022/03/27 09:00:33;;;;;;;1.70;0.73;;;10.50;44.30;;;;;;4966006;28;20121;-84
2022/03/27 09:03:01;;;;;;;;;;;10.50;45.10;;;;;;4966454;28;20038;-84
2022/03/27 09:05:27;;;;;;;3.28;0.80;;;10.50;45.70;;;;;;4955588;28;20292;-86
2022/03/27 09:07:54;;;;;;;2.88;0.77;;;10.50;45.40;;;;;;4968039;28;20456;-86
2022/03/27 09:10:22;;;;;;;0.75;0.73;;;10.50;44.70;;;;;;4951018;28;20073;-86
2022/03/27 09:12:49;;;;;;;1.77;0.70;;;10.50;43.60;;;;;;4966178;28;20031;-84
2022/03/27 09:15:17;;;;;;;5.20;0.80;;;10.50;43.20;;;;;;4984493;28;20041;-84
2022/03/27 09:18:08;;;;;;;3.33;0.60;;;10.40;42.90;;;;;;4969935;28;20092;-84
2022/03/27 09:20:36;;;;;;;2.72;1.00;;;10.40;43.20;;;;;;4985073;28;20338;-82
2022/03/27 09:23:12;;;;;;;2.15;0.68;;;10.40;43.10;;;;;;4983746;28;20027;-82
2022/03/27 09:25:50;;;;;;;2.78;0.70;;;10.40;43.10;;;;;;4985015;28;20038;-83
2022/03/27 09:28:26;;;;;;;1.35;0.60;;;10.30;43.10;;;;;;4973774;28;20089;-83
2022/03/27 09:30:53;;;;;;;5.15;0.50;;;10.40;43.80;;;;;;4954995;28;20046;-83
2022/03/27 09:33:33;;;;;;;2.28;0.60;;;10.40;44.70;;;;;;4984220;28;20521;-83
2022/03/27 09:36:10;;;;;;;4.60;0.60;;;10.40;43.30;;;;;;4970744;28;20093;-84
2022/03/27 09:38:37;;;;;;;2.50;0.40;;;10.40;44.00;;;;;;4983868;28;20045;-84
2022/03/27 09:41:03;;;;;;;1.52;0.80;;;10.40;44.40;;;;;;4966406;28;20046;-84
2022/03/27 09:43:29;;;;;;;3.05;0.93;;;10.40;42.70;;;;;;4966037;28;20501;-86
2022/03/27 09:46:02;;;;;;;2.67;0.85;;;10.30;41.00;;;;;;4981567;28;20039;-83
2022/03/27 09:48:29;;;;;;;3.60;0.60;;;10.20;40.30;;;;;;4965610;28;20030;-85
2022/03/27 09:50:59;;;;;;;0.93;0.63;;;10.10;40.30;;;;;;4950668;28;20034;-82
2022/03/27 09:53:30;;;;;;;2.60;0.60;;;10.10;41.00;;;;;;4987020;28;20520;-84
2022/03/27 09:55:59;;;;;;;2.60;0.95;;;10.10;41.90;;;;;;4966235;28;20057;-85
2022/03/27 09:58:42;;;;;;;1.50;0.73;;;10.10;42.50;;;;;;4950687;28;20035;-85
2022/03/27 10:01:26;;;;;;;3.95;0.70;;;10.10;42.70;;;;;;4964069;28;20054;-84
2022/03/27 10:04:13;;;;;;;1.35;0.70;;;10.00;42.10;;;;;;4945989;28;20409;-85
2022/03/27 10:06:41;;;;;;;1.50;0.60;;;10.00;42.10;;;;;;4963657;28;20129;-86
2022/03/27 10:09:09;;;;;;;2.78;0.85;;;10.00;42.70;;;;;;4946502;28;20043;-84
2022/03/27 10:11:37;;;;;;;2.08;0.60;;;10.00;42.90;;;;;;4945886;28;20633;-83
2022/03/27 10:14:04;;;;;;;3.70;0.60;;;9.90;42.90;;;;;;4951443;28;20031;-82
2022/03/27 10:16:36;;;;;;;1.75;0.50;;;9.90;43.10;;;;;;4947274;28;20031;-84
2022/03/27 10:19:27;;;;;;;0.73;0.57;;;9.90;43.60;;;;;;4944876;28;20345;-85
2022/03/27 10:21:54;;;;;;;2.65;0.40;;;9.90;43.10;;;;;;4947944;28;20049;-84
2022/03/27 10:24:27;;;;;;;2.33;0.90;;;9.80;42.70;;;;;;4963558;28;20051;-82
2022/03/27 10:26:57;;;;;;;7.28;1.02;;;9.80;42.80;;;;;;4946652;28;20046;-81
2022/03/27 10:29:25;;;;;;;3.55;0.77;;;9.70;43.40;;;;;;4962248;28;20047;-81
2022/03/27 10:31:53;;;;;;;2.10;0.52;;;9.70;43.80;;;;;;4934160;28;20035;-81
2022/03/27 10:34:20;;;;;;;2.65;0.80;;;9.60;44.60;;;;;;4950740;28;20142;-80
2022/03/27 10:36:51;;;;;;;3.75;0.90;;;9.60;44.80;;;;;;4962618;28;20415;-83
2022/03/27 10:39:29;;;;;;;4.95;0.80;;;9.70;45.70;;;;;;4949491;28;20577;-84
2022/03/27 10:42:33;;;;;;;4.53;0.80;;;9.60;46.40;;;;;;4945617;28;20544;-83
2022/03/27 10:45:14;;;;;;;3.80;0.80;;;9.70;46.20;;;;;;4945412;28;20039;-82
2022/03/27 10:47:41;;;;;;;2.13;0.82;;;9.70;45.90;;;;;;4962919;28;20031;-81
2022/03/27 10:50:08;;;;;;;3.05;0.85;;;9.70;45.00;;;;;;4944161;28;20540;-83
2022/03/27 10:52:36;;;;;;;1.13;0.60;;;9.60;44.40;;;;;;4963534;28;20118;-82
2022/03/27 10:55:08;;;;;;;1.00;0.50;;;9.60;44.10;;;;;;4963035;28;20514;-81
2022/03/27 10:57:37;;;;;;;1.40;0.90;;;9.60;43.80;;;;;;4961838;28;20046;-81
2022/03/27 11:00:09;;;;;;;1.42;0.80;;;9.60;43.90;;;;;;4944704;28;20062;-81
2022/03/27 11:02:53;;;;;;;0.82;0.63;;;9.60;43.90;;;;;;4954667;28;20745;-80
2022/03/27 11:05:36;;;;;;;4.30;0.80;;;9.50;44.10;;;;;;4960694;28;20043;-81
2022/03/27 11:08:17;;;;;;;1.67;0.80;;;9.50;44.40;;;;;;4966424;28;20481;-81
2022/03/27 11:10:52;;;;;;;4.53;0.80;;;9.50;44.40;;;;;;4962278;28;20070;-84
2022/03/27 11:13:27;;;;;;;3.03;0.50;;;9.50;44.20;;;;;;4959873;28;20035;-85
2022/03/27 11:16:10;;;;;;;1.13;0.70;;;9.50;43.80;;;;;;4949323;28;20039;-83
2022/03/27 11:18:48;;;;;;;3.75;0.60;;;9.40;43.30;;;;;;4945087;28;20139;-82
2022/03/27 11:21:34;;;;;;;2.50;0.50;;;9.40;46.00;;;;;;4942870;28;20085;-83
2022/03/27 11:24:00;;;;;;;;;;;9.50;51.10;;;;;;4952882;28;20026;-82
2022/03/27 11:26:32;;;;;;;4.40;0.70;;;9.60;52.10;;;;;;4944190;28;19949;-83
2022/03/27 11:29:05;;;;;;;2.50;0.50;;;9.70;52.30;;;;;;4961378;28;20130;-83
2022/03/27 11:31:35;;;;;;;6.45;0.95;;;9.80;52.70;;;;;;4949200;28;20035;-83
2022/03/27 11:34:17;;;;;;;3.05;0.70;;;9.90;52.60;;;;;;4961406;28;20802;-82
2022/03/27 11:36:48;;;;;;;3.35;0.50;;;10.00;52.50;;;;;;4949630;28;20039;-83
2022/03/27 11:39:41;;;;;;;1.45;0.40;;;10.10;52.90;;;;;;4949749;28;20030;-84
2022/03/27 11:42:31;;;;;;;3.28;0.63;;;10.20;52.60;;;;;;4955956;28;20046;-81
2022/03/27 11:45:20;;;;;;;0.98;0.50;;;10.30;52.20;;;;;;4958962;28;20103;-83
2022/03/27 11:47:54;;;;;;;3.55;0.50;;;10.40;52.00;;;;;;4962959;28;20071;-81
2022/03/27 11:50:28;;;;;;;2.22;0.63;;;10.50;51.90;;;;;;4945777;28;20101;-81
2022/03/27 11:52:55;;;;;;;1.08;0.50;;;10.50;51.60;;;;;;4959636;28;20042;-82
2022/03/27 11:55:22;;;;;;;2.88;0.95;;;10.60;51.20;;;;;;4976917;28;20532;-80
2022/03/27 11:57:48;;;;;;;5.15;0.75;;;10.70;51.50;;;;;;4957755;28;20137;-81
2022/03/27 12:00:16;;;;;;;2.85;0.65;;;10.80;57.80;;;;;;4960476;28;20169;-81
2022/03/27 12:02:43;;;;;;;2.53;0.57;;;10.90;57.70;;;;;;4963655;28;20137;-80
2022/03/27 12:05:11;;;;;;;1.58;0.80;;;11.00;57.00;;;;;;4982001;28;20092;-82
2022/03/27 12:07:52;;;;;;;1.50;0.60;;;11.00;56.10;;;;;;4963525;28;20524;-82
2022/03/27 12:10:19;;;;;;;5.38;1.00;;;11.00;55.20;;;;;;4980296;28;20039;-81
2022/03/27 12:12:59;;;;;;;4.13;0.82;;;11.10;54.30;;;;;;4989347;28;20027;-81
2022/03/27 12:15:36;;;;;;;2.20;0.60;;;11.20;53.80;;;;;;4984320;28;20038;-80
2022/03/27 12:18:05;;;;;;;3.78;0.60;;;11.20;53.70;;;;;;4985261;28;20030;-79
2022/03/27 12:20:46;;;;;;;1.10;0.65;;;11.30;53.50;;;;;;4984095;28;20578;-82
2022/03/27 12:23:41;;;;;;;8.00;1.00;;;11.30;51.90;;;;;;4971111;28;20575;-81
2022/03/27 12:32:13;;;;;;;1.00;0.55;;;11.30;48.00;;;;;;4951287;28;20078;-83
2022/03/27 12:34:42;;;;;;;0.80;0.68;;;11.30;47.00;;;;;;4972764;28;20059;-82
2022/03/27 12:37:12;;;;;;;1.20;0.60;;;11.20;47.00;;;;;;4967294;28;20045;-82
2022/03/27 12:39:48;;;;;;;1.70;0.60;;;11.20;46.80;;;;;;4967613;28;20039;-81
2022/03/27 12:42:36;;;;;;;1.20;0.50;;;11.20;46.60;;;;;;4964570;28;20057;-81
2022/03/27 12:45:24;;;;;;;1.00;0.60;;;11.20;47.30;;;;;;4966324;28;20592;-82
2022/03/27 12:47:51;;;;;;;5.50;0.82;;;11.20;48.00;;;;;;4967591;28;20031;-81
2022/03/27 12:50:26;;;;;;;0.77;0.70;;;11.20;49.10;;;;;;4964989;28;20078;-82
2022/03/27 12:52:56;;;;;;;1.43;0.60;;;11.30;49.90;;;;;;4938719;28;20041;-89
2022/03/27 12:55:26;;;;;;;1.20;0.55;;;11.30;49.50;;;;;;4981328;28;20038;-94
2022/03/27 12:57:57;;;;;;;1.95;0.63;;;11.30;49.30;;;;;;4991979;28;20030;-91
2022/03/27 13:00:31;;;;;;;1.38;0.73;;;11.40;49.20;;;;;;4934242;28;20031;-91
2022/03/27 13:03:18;;;;;;;0.98;0.60;;;11.40;47.90;;;;;;4972457;28;20043;-91
2022/03/27 13:05:56;;;;;;;2.13;0.50;;;11.30;44.40;;;;;;4981650;28;20061;-90
2022/03/27 13:08:30;;;;;;;2.60;0.50;;;11.20;42.90;;;;;;4954878;28;20100;-92
2022/03/27 13:11:05;;;;;;;1.20;0.50;;;11.00;41.90;;;;;;4989431;28;20046;-87
2022/03/27 13:13:34;;;;;;;0.63;0.45;;;10.90;41.00;;;;;;4971886;28;20037;-93
2022/03/27 13:16:00;;;;;;;2.00;0.70;;;10.80;39.70;;;;;;4946073;28;20038;-88